createdAt,value
2023-05-19T00:01:21.760Z,94.04
2023-05-19T00:04:25.100Z,94.07
2023-05-19T00:07:32.808Z,94.07
2023-05-19T00:10:36.689Z,94.03
2023-05-19T00:13:39.850Z,94.04
2023-05-19T00:16:43.406Z,93.97
2023-05-19T00:19:46.809Z,93.97
2023-05-19T00:22:51.213Z,94.09
2023-05-19T00:25:54.270Z,94.05
2023-05-19T00:28:57.458Z,94.20
2023-05-19T00:32:00.553Z,94.36
2023-05-19T00:35:03.662Z,94.20
2023-05-19T00:38:06.949Z,94.37
2023-05-19T00:41:10.148Z,94.57
2023-05-19T00:44:13.257Z,94.55
2023-05-19T00:47:16.934Z,95.06
2023-05-19T00:50:20.030Z,94.86
2023-05-19T00:53:24.724Z,94.96
2023-05-19T00:56:27.879Z,94.81
2023-05-19T00:59:30.999Z,94.63
2023-05-19T01:02:34.990Z,95.06
2023-05-19T01:05:40.303Z,94.83
2023-05-19T01:08:43.602Z,94.66
2023-05-19T01:11:46.595Z,95.11
2023-05-19T01:14:50.364Z,95.05
2023-05-19T01:18:11.432Z,95.09
2023-05-19T01:21:36.981Z,95.01
2023-05-19T01:24:58.793Z,94.81
2023-05-19T01:28:34.519Z,95.13
2023-05-19T01:31:40.176Z,95.41
2023-05-19T01:34:47.264Z,95.17
2023-05-19T01:37:55.203Z,95.35
2023-05-19T01:41:04.454Z,95.29
2023-05-19T01:44:10.076Z,95.37
2023-05-19T01:47:19.288Z,95.68
2023-05-19T01:50:23.873Z,95.86
2023-05-19T01:53:27.159Z,95.63
2023-05-19T01:56:50.349Z,95.49
2023-05-19T02:00:06.618Z,95.46
2023-05-19T02:03:31.009Z,95.38
2023-05-19T02:06:50.131Z,95.09
2023-05-19T02:10:06.515Z,95.24
2023-05-19T02:13:21.669Z,95.05
2023-05-19T02:16:30.411Z,95.61
2023-05-19T02:19:42.604Z,95.43
2023-05-19T02:22:46.071Z,95.41
2023-05-19T02:25:57.050Z,95.27
2023-05-19T02:29:02.692Z,95.25
2023-05-19T02:32:08.819Z,95.35
2023-05-19T02:35:13.539Z,95.16
2023-05-19T02:38:26.575Z,95.32
2023-05-19T02:41:30.852Z,95.32
2023-05-19T02:44:34.244Z,95.07
2023-05-19T02:47:39.102Z,95.26
2023-05-19T02:50:46.929Z,95.37
2023-05-19T02:53:50.559Z,95.39
2023-05-19T02:56:54.182Z,95.44
2023-05-19T02:59:58.368Z,95.55
2023-05-19T03:03:03.488Z,95.46
2023-05-19T03:06:08.870Z,95.57
2023-05-19T03:09:13.027Z,95.33
2023-05-19T03:12:18.616Z,95.28
2023-05-19T03:15:23.691Z,95.23
2023-05-19T03:18:29.378Z,94.99
2023-05-19T03:21:34.682Z,95.00
2023-05-19T03:24:37.964Z,94.94
2023-05-19T03:27:43.648Z,94.93
2023-05-19T03:30:52.293Z,95.05
2023-05-19T03:33:57.926Z,94.96
2023-05-19T03:37:01.689Z,94.89
2023-05-19T03:40:07.069Z,94.72
2023-05-19T03:43:10.929Z,94.76
2023-05-19T03:46:14.961Z,94.73
2023-05-19T03:49:19.519Z,94.59
2023-05-19T03:52:26.175Z,94.54
2023-05-19T03:55:31.415Z,94.42
2023-05-19T03:58:37.137Z,94.36
2023-05-19T04:01:42.083Z,94.31
2023-05-19T04:04:46.392Z,94.29
2023-05-19T04:07:49.999Z,94.41
2023-05-19T04:10:54.265Z,94.33
2023-05-19T04:13:57.426Z,94.10
2023-05-19T04:17:00.910Z,94.03
2023-05-19T04:20:06.476Z,93.73
2023-05-19T04:23:12.607Z,93.71
2023-05-19T04:26:18.093Z,93.67
2023-05-19T04:29:24.332Z,93.46
2023-05-19T04:32:30.473Z,93.37
2023-05-19T04:36:06.203Z,93.33
2023-05-19T04:39:30.509Z,92.63
2023-05-19T04:42:47.652Z,93.00
2023-05-19T04:45:51.932Z,92.87
2023-05-19T04:48:57.815Z,92.87
2023-05-19T04:52:01.502Z,92.71
2023-05-19T04:55:05.625Z,91.56
2023-05-19T04:58:09.496Z,91.51
2023-05-19T05:01:33.281Z,90.49
2023-05-19T05:04:36.923Z,90.60
2023-05-19T05:07:41.661Z,90.52
2023-05-19T05:10:54.165Z,90.80
2023-05-19T05:13:59.902Z,90.86
2023-05-19T05:17:03.491Z,89.74
2023-05-19T05:20:08.858Z,89.09
2023-05-19T05:23:14.840Z,89.72
2023-05-19T05:26:25.206Z,89.02
2023-05-19T05:29:28.270Z,88.39
2023-05-19T05:32:32.353Z,88.41
2023-05-19T05:35:35.393Z,87.83
2023-05-19T05:38:39.418Z,87.08
2023-05-19T05:41:43.058Z,86.89
2023-05-19T05:44:46.670Z,86.42
2023-05-19T05:47:51.035Z,85.89
2023-05-19T05:50:56.917Z,83.81
2023-05-19T05:54:01.169Z,81.64
2023-05-19T05:57:04.684Z,83.86
2023-05-19T06:00:16.134Z,82.43
2023-05-19T06:03:24.600Z,81.60
2023-05-19T06:06:28.545Z,81.69
2023-05-19T06:09:33.024Z,80.25
2023-05-19T06:12:41.166Z,79.39
2023-05-19T06:15:44.913Z,78.23
2023-05-19T06:18:48.260Z,78.35
2023-05-19T06:21:52.447Z,77.61
2023-05-19T06:24:58.070Z,76.45
2023-05-19T06:28:01.311Z,76.82
2023-05-19T06:31:04.626Z,76.97
2023-05-19T06:34:10.843Z,76.27
2023-05-19T06:37:19.748Z,76.00
2023-05-19T06:40:23.332Z,76.28
2023-05-19T06:43:27.187Z,75.97
2023-05-19T06:46:30.424Z,75.90
2023-05-19T06:49:33.742Z,75.70
2023-05-19T06:52:39.305Z,74.99
2023-05-19T06:55:58.217Z,75.26
2023-05-19T06:59:03.230Z,75.43
2023-05-19T07:02:07.280Z,75.56
2023-05-19T07:05:15.601Z,75.66
2023-05-19T07:08:37.479Z,75.14
2023-05-19T07:11:41.725Z,74.87
2023-05-19T07:14:45.802Z,74.74
2023-05-19T07:17:51.722Z,74.37
2023-05-19T07:20:55.920Z,74.56
2023-05-19T07:23:59.445Z,73.94
2023-05-19T07:27:04.417Z,74.60
2023-05-19T07:30:09.043Z,74.60
2023-05-19T07:33:12.494Z,74.69
2023-05-19T07:36:16.010Z,74.59
2023-05-19T07:39:19.555Z,73.15
2023-05-19T07:42:32.103Z,71.91
2023-05-19T07:45:36.436Z,72.32
2023-05-19T07:48:39.534Z,72.38
2023-05-19T07:51:43.131Z,72.45
2023-05-19T07:54:48.606Z,72.28
2023-05-19T07:57:53.160Z,71.42
2023-05-19T08:01:00.835Z,70.87
2023-05-19T08:04:04.008Z,70.81
2023-05-19T08:07:07.458Z,71.04
2023-05-19T08:10:11.133Z,70.70
2023-05-19T08:13:15.016Z,70.31
2023-05-19T08:16:18.380Z,70.26
2023-05-19T08:19:22.269Z,70.95
2023-05-19T08:22:26.143Z,70.89
2023-05-19T08:25:29.608Z,70.84
2023-05-19T08:28:32.803Z,71.13
2023-05-19T08:31:36.639Z,70.99
2023-05-19T08:34:39.886Z,71.31
2023-05-19T08:37:43.850Z,69.75
2023-05-19T08:40:48.771Z,70.06
2023-05-19T08:43:52.006Z,71.18
2023-05-19T08:46:58.299Z,71.71
2023-05-19T08:50:08.669Z,71.50
2023-05-19T08:56:36.376Z,70.58
2023-05-19T08:59:41.598Z,69.36
2023-05-19T09:02:59.690Z,68.32
2023-05-19T09:06:14.082Z,68.59
2023-05-19T09:09:17.582Z,69.46
2023-05-19T09:12:21.274Z,69.95
2023-05-19T09:15:28.749Z,69.09
2023-05-19T09:18:32.350Z,68.19
2023-05-19T09:21:36.448Z,68.22
2023-05-19T09:24:40.915Z,67.58
2023-05-19T09:27:44.330Z,66.82
2023-05-19T09:30:47.402Z,66.24
2023-05-19T09:33:54.358Z,66.87
2023-05-19T09:37:00.069Z,66.65
2023-05-19T09:40:05.984Z,66.60
2023-05-19T09:43:11.024Z,66.92
2023-05-19T09:46:16.057Z,66.89
2023-05-19T09:49:24.195Z,66.31
2023-05-19T09:52:28.495Z,66.50
2023-05-19T09:55:34.025Z,66.69
2023-05-19T09:58:38.257Z,66.63
2023-05-19T10:01:46.571Z,66.47
2023-05-19T10:04:51.331Z,66.47
2023-05-19T10:07:55.972Z,65.64
2023-05-19T10:11:00.276Z,64.66
2023-05-19T10:14:04.771Z,64.06
2023-05-19T10:17:10.087Z,64.13
2023-05-19T10:20:16.159Z,62.55
2023-05-19T10:23:19.850Z,62.47
2023-05-19T10:26:25.327Z,61.71
2023-05-19T10:29:34.967Z,61.32
2023-05-19T10:32:40.618Z,60.87
2023-05-19T10:36:14.470Z,62.00
2023-05-19T10:39:27.960Z,62.44
2023-05-19T10:42:42.162Z,61.52
2023-05-19T10:45:49.735Z,61.82
2023-05-19T10:48:52.869Z,61.91
2023-05-19T10:51:58.324Z,62.26
2023-05-19T10:55:01.364Z,60.44
2023-05-19T10:58:04.732Z,59.92
2023-05-19T11:01:18.715Z,59.57
2023-05-19T11:04:41.309Z,59.49
2023-05-19T11:08:04.749Z,59.83
2023-05-19T11:11:17.693Z,59.46
2023-05-19T11:14:24.221Z,58.89
2023-05-19T11:17:27.567Z,59.31
2023-05-19T11:20:35.263Z,58.59
2023-05-19T11:23:40.780Z,59.09
2023-05-19T11:26:43.950Z,59.22
2023-05-19T11:29:48.620Z,58.09
2023-05-19T11:32:52.585Z,57.86
2023-05-19T11:36:00.430Z,57.43
2023-05-19T11:39:06.214Z,56.97
2023-05-19T11:42:11.013Z,56.44
2023-05-19T11:45:14.873Z,56.58
2023-05-19T11:48:21.817Z,55.45
2023-05-19T11:51:25.168Z,55.26
2023-05-19T11:54:33.827Z,55.21
2023-05-19T11:57:38.437Z,53.95
2023-05-19T12:00:43.215Z,54.68
2023-05-19T12:03:46.747Z,53.98
2023-05-19T12:06:50.146Z,52.81
2023-05-19T12:09:55.571Z,53.70
2023-05-19T12:12:59.969Z,54.15
2023-05-19T12:16:05.458Z,54.09
2023-05-19T12:19:08.824Z,53.89
2023-05-19T12:22:12.955Z,52.66
2023-05-19T12:25:17.108Z,52.64
2023-05-19T12:28:20.286Z,54.42
2023-05-19T12:31:24.142Z,54.13
2023-05-19T12:34:27.183Z,53.01
2023-05-19T12:37:30.382Z,53.31
2023-05-19T12:40:35.311Z,53.64
2023-05-19T12:43:39.807Z,53.44
2023-05-19T12:46:44.750Z,53.29
2023-05-19T12:50:00.360Z,54.19
2023-05-19T12:53:03.619Z,53.64
2023-05-19T12:56:14.726Z,52.78
2023-05-19T12:59:37.204Z,53.70
2023-05-19T13:03:00.741Z,54.58
2023-05-19T13:06:04.070Z,54.76
2023-05-19T13:09:07.413Z,54.42
2023-05-19T13:12:10.323Z,54.70
2023-05-19T13:15:13.259Z,55.06
2023-05-19T13:18:16.343Z,54.91
2023-05-19T13:21:19.571Z,55.97
2023-05-19T13:24:22.668Z,55.30
2023-05-19T13:27:25.596Z,55.60
2023-05-19T13:30:28.661Z,55.89
2023-05-19T13:33:32.292Z,55.69
2023-05-19T13:36:36.857Z,55.70
2023-05-19T13:39:40.637Z,56.12
2023-05-19T13:42:43.892Z,56.58
2023-05-19T13:45:46.974Z,56.91
2023-05-19T13:48:49.854Z,56.92
2023-05-19T13:51:57.318Z,57.38
2023-05-19T13:55:00.227Z,56.98
2023-05-19T13:58:03.782Z,57.29
2023-05-19T14:01:06.682Z,57.56
2023-05-19T14:04:10.711Z,57.49
2023-05-19T14:07:13.903Z,56.90
2023-05-19T14:10:16.818Z,57.24
2023-05-19T14:13:32.647Z,57.79
2023-05-19T14:16:38.359Z,57.82
2023-05-19T14:19:41.378Z,57.86
2023-05-19T14:22:44.316Z,58.09
2023-05-19T14:25:47.232Z,58.51
2023-05-19T14:28:50.131Z,58.60
2023-05-19T14:31:53.249Z,58.92
2023-05-19T14:34:56.376Z,59.01
2023-05-19T14:37:59.287Z,58.63
2023-05-19T14:41:02.936Z,58.95
2023-05-19T14:44:06.122Z,60.19
2023-05-19T14:47:11.407Z,60.18
2023-05-19T14:50:14.571Z,60.17
2023-05-19T14:53:17.587Z,60.83
2023-05-19T14:56:22.154Z,60.98
2023-05-19T14:59:25.190Z,61.06
2023-05-19T15:02:29.689Z,60.95
2023-05-19T15:05:32.877Z,61.40
2023-05-19T15:08:37.868Z,61.64
2023-05-19T15:11:40.981Z,61.84
2023-05-19T15:14:43.854Z,61.66
2023-05-19T15:17:48.031Z,62.18
2023-05-19T15:20:50.938Z,63.07
2023-05-19T15:23:53.945Z,63.55
2023-05-19T15:26:56.838Z,64.20
2023-05-19T15:29:59.744Z,64.69
2023-05-19T15:33:02.678Z,65.12
2023-05-19T15:36:06.007Z,65.25
2023-05-19T15:39:09.884Z,65.73
2023-05-19T15:42:12.808Z,66.05
2023-05-19T15:45:15.739Z,65.73
2023-05-19T15:48:18.664Z,65.89
2023-05-19T15:51:21.930Z,66.14
2023-05-19T15:54:25.650Z,65.64
2023-05-19T15:57:28.958Z,65.56
2023-05-19T16:00:32.043Z,65.64
2023-05-19T16:03:35.229Z,66.39
2023-05-19T16:06:38.295Z,66.80
2023-05-19T16:09:41.134Z,66.85
2023-05-19T16:12:44.072Z,66.99
2023-05-19T16:15:47.273Z,67.07
2023-05-19T16:18:50.646Z,67.12
2023-05-19T16:21:53.668Z,67.82
2023-05-19T16:24:56.556Z,68.33
2023-05-19T16:27:59.576Z,68.74
2023-05-19T16:31:02.887Z,69.23
2023-05-19T16:34:05.757Z,69.71
2023-05-19T16:37:08.767Z,70.41
2023-05-19T16:40:12.102Z,71.09
2023-05-19T16:43:14.983Z,71.92
2023-05-19T16:46:17.879Z,72.20
2023-05-19T16:49:20.964Z,72.62
2023-05-19T16:52:24.034Z,72.94
2023-05-19T16:55:27.123Z,73.47
2023-05-19T16:58:31.021Z,73.99
2023-05-19T17:01:34.158Z,74.22
2023-05-19T17:04:37.046Z,74.61
2023-05-19T17:07:39.908Z,75.01
2023-05-19T17:10:42.762Z,75.17
2023-05-19T17:13:46.457Z,75.90
2023-05-19T17:16:49.575Z,76.19
2023-05-19T17:19:52.602Z,76.69
2023-05-19T17:22:55.483Z,77.07
2023-05-19T17:26:02.083Z,77.70
2023-05-19T17:29:06.032Z,78.29
2023-05-19T17:32:09.084Z,78.58
2023-05-19T17:35:12.088Z,79.20
2023-05-19T17:38:15.129Z,79.71
2023-05-19T17:41:18.048Z,79.93
2023-05-19T17:44:23.202Z,80.24
2023-05-19T17:47:26.362Z,80.27
2023-05-19T17:50:29.241Z,80.86
2023-05-19T17:53:32.385Z,81.21
2023-05-19T17:56:41.593Z,81.32
2023-05-19T17:59:45.080Z,81.31
2023-05-19T18:02:48.441Z,82.21
2023-05-19T18:05:51.903Z,82.58
2023-05-19T18:08:58.146Z,82.77
2023-05-19T18:12:02.473Z,82.96
2023-05-19T18:15:06.130Z,82.67
2023-05-19T18:18:10.723Z,82.67
2023-05-19T18:21:17.855Z,82.97
2023-05-19T18:24:29.076Z,82.99
2023-05-19T18:27:33.568Z,83.22
2023-05-19T18:30:36.729Z,83.32
2023-05-19T18:33:39.796Z,83.59
2023-05-19T18:36:42.746Z,84.12
2023-05-19T18:39:45.751Z,84.63
2023-05-19T18:42:48.625Z,84.68
2023-05-19T18:45:51.595Z,85.18
2023-05-19T18:48:54.789Z,85.46
2023-05-19T18:51:57.786Z,85.34
2023-05-19T18:55:01.304Z,85.14
2023-05-19T18:58:04.798Z,85.46
2023-05-19T19:01:07.730Z,85.50
2023-05-19T19:04:10.685Z,86.35
2023-05-19T19:07:13.633Z,85.58
2023-05-19T19:10:16.693Z,86.39
2023-05-19T19:13:19.740Z,86.04
2023-05-19T19:16:22.829Z,85.70
2023-05-19T19:19:30.034Z,85.94
2023-05-19T19:22:33.264Z,86.21
2023-05-19T19:25:36.174Z,86.61
2023-05-19T19:28:39.194Z,86.49
2023-05-19T19:31:42.439Z,86.39
2023-05-19T19:34:45.544Z,86.75
2023-05-19T19:37:48.737Z,86.76
2023-05-19T19:40:52.766Z,86.87
2023-05-19T19:43:56.154Z,86.73
2023-05-19T19:46:59.693Z,86.75
2023-05-19T19:50:05.750Z,87.09
2023-05-19T19:53:09.056Z,87.16
2023-05-19T19:56:11.995Z,87.69
2023-05-19T19:59:16.041Z,87.47
2023-05-19T20:02:19.083Z,87.76
2023-05-19T20:05:22.331Z,87.94
2023-05-19T20:08:26.018Z,87.77
2023-05-19T20:11:29.130Z,88.04
2023-05-19T20:14:32.286Z,88.10
2023-05-19T20:17:37.231Z,88.29
2023-05-19T20:20:41.269Z,88.55
2023-05-19T20:23:44.384Z,88.34
2023-05-19T20:26:47.569Z,88.18
2023-05-19T20:29:50.641Z,88.51
2023-05-19T20:32:53.618Z,88.84
2023-05-19T20:35:56.560Z,88.55
2023-05-19T20:38:59.860Z,89.33
2023-05-19T20:42:02.754Z,88.77
2023-05-19T20:45:06.434Z,88.82
2023-05-19T20:48:11.247Z,88.77
2023-05-19T20:51:14.422Z,88.18
2023-05-19T20:54:19.863Z,88.18
2023-05-19T20:57:22.827Z,88.07
2023-05-19T21:00:25.859Z,87.97
2023-05-19T21:03:30.611Z,87.91
2023-05-19T21:06:33.970Z,87.82
2023-05-19T21:09:36.911Z,87.89
2023-05-19T21:12:39.879Z,88.13
2023-05-19T21:15:42.768Z,87.99
2023-05-19T21:18:45.706Z,87.86
2023-05-19T21:21:49.596Z,88.21
2023-05-19T21:24:53.202Z,87.92
2023-05-19T21:27:56.207Z,87.99
2023-05-19T21:30:59.253Z,88.00
2023-05-19T21:34:02.962Z,87.99
2023-05-19T21:37:05.861Z,87.94
2023-05-19T21:40:09.845Z,87.97
2023-05-19T21:43:13.000Z,88.13
2023-05-19T21:46:15.876Z,88.13
2023-05-19T21:49:18.854Z,88.18
2023-05-19T21:52:22.059Z,88.48
2023-05-19T21:55:24.961Z,88.45
2023-05-19T21:58:27.859Z,88.48
2023-05-19T22:01:30.869Z,88.37
2023-05-19T22:04:33.794Z,88.57
2023-05-19T22:07:36.797Z,88.74
2023-05-19T22:10:39.668Z,88.62
2023-05-19T22:13:42.628Z,88.86
2023-05-19T22:16:47.598Z,88.62
2023-05-19T22:19:50.690Z,88.83
2023-05-19T22:22:53.656Z,88.84
2023-05-19T22:25:56.504Z,89.05
2023-05-19T22:28:59.372Z,89.08
2023-05-19T22:32:02.363Z,89.27
2023-05-19T22:35:06.688Z,89.32
2023-05-19T22:38:10.671Z,89.39
2023-05-19T22:41:13.807Z,89.32
2023-05-19T22:44:18.202Z,89.30
2023-05-19T22:47:21.795Z,89.36
2023-05-19T22:50:24.854Z,89.50
2023-05-19T22:53:27.702Z,89.39
2023-05-19T22:56:30.550Z,89.14
2023-05-19T22:59:33.766Z,89.42
2023-05-19T23:02:36.816Z,89.24
2023-05-19T23:05:40.228Z,89.37
2023-05-19T23:08:46.736Z,90.31
2023-05-19T23:11:50.236Z,89.60
2023-05-19T23:14:53.133Z,90.33
2023-05-19T23:17:56.076Z,90.19
2023-05-19T23:20:59.041Z,89.98
2023-05-19T23:24:02.097Z,90.42
2023-05-19T23:27:05.712Z,90.06
2023-05-19T23:30:09.123Z,89.60
2023-05-19T23:33:12.060Z,89.49
2023-05-19T23:36:16.706Z,89.38
2023-05-19T23:39:19.711Z,90.14
2023-05-19T23:42:22.613Z,89.93
2023-05-19T23:45:25.611Z,89.41
2023-05-19T23:48:29.489Z,89.33
2023-05-19T23:51:32.349Z,90.16
2023-05-19T23:54:35.411Z,89.67
2023-05-19T23:57:38.375Z,89.33
